地図

経路データ

SID SEASON NUMBER BASIN SUBBASIN NAME ISO_TIME NATURE LAT LON WMO_WIND WMO_PRES WMO_AGENCY TRACK_TYPE DIST2LAND LANDFALL IFLAG USA_AGENCY USA_ATCF_ID USA_LAT USA_LON USA_RECORD USA_STATUS USA_WIND USA_PRES USA_SSHS USA_R34_NE USA_R34_SE USA_R34_SW USA_R34_NW USA_R50_NE USA_R50_SE USA_R50_SW USA_R50_NW USA_R64_NE USA_R64_SE USA_R64_SW USA_R64_NW USA_POCI USA_ROCI USA_RMW USA_EYE TOKYO_LAT TOKYO_LON TOKYO_GRADE TOKYO_WIND TOKYO_PRES TOKYO_R50_DIR TOKYO_R50_LONG TOKYO_R50_SHORT TOKYO_R30_DIR TOKYO_R30_LONG TOKYO_R30_SHORT TOKYO_LAND CMA_LAT CMA_LON CMA_CAT CMA_WIND CMA_PRES HKO_LAT HKO_LON HKO_CAT HKO_WIND HKO_PRES NEWDELHI_LAT NEWDELHI_LON NEWDELHI_GRADE NEWDELHI_WIND NEWDELHI_PRES NEWDELHI_CI NEWDELHI_DP NEWDELHI_POCI REUNION_LAT REUNION_LON REUNION_TYPE REUNION_WIND REUNION_PRES REUNION_TNUM REUNION_CI REUNION_RMW REUNION_R34_NE REUNION_R34_SE REUNION_R34_SW REUNION_R34_NW REUNION_R50_NE REUNION_R50_SE REUNION_R50_SW REUNION_R50_NW REUNION_R64_NE REUNION_R64_SE REUNION_R64_SW REUNION_R64_NW BOM_LAT BOM_LON BOM_TYPE BOM_WIND BOM_PRES BOM_TNUM BOM_CI BOM_RMW BOM_R34_NE BOM_R34_SE BOM_R34_SW BOM_R34_NW BOM_R50_NE BOM_R50_SE BOM_R50_SW BOM_R50_NW BOM_R64_NE BOM_R64_SE BOM_R64_SW BOM_R64_NW BOM_ROCI BOM_POCI BOM_EYE BOM_POS_METHOD BOM_PRES_METHOD NADI_LAT NADI_LON NADI_CAT NADI_WIND NADI_PRES WELLINGTON_LAT WELLINGTON_LON WELLINGTON_WIND WELLINGTON_PRES DS824_LAT DS824_LON DS824_STAGE DS824_WIND DS824_PRES TD9636_LAT TD9636_LON TD9636_STAGE TD9636_WIND TD9636_PRES TD9635_LAT TD9635_LON TD9635_WIND TD9635_PRES TD9635_ROCI NEUMANN_LAT NEUMANN_LON NEUMANN_CLASS NEUMANN_WIND NEUMANN_PRES MLC_LAT MLC_LON MLC_CLASS MLC_WIND MLC_PRES USA_GUST BOM_GUST BOM_GUST_PER REUNION_GUST REUNION_GUST_PER USA_SEAHGT USA_SEARAD_NE USA_SEARAD_SE USA_SEARAD_SW USA_SEARAD_NW STORM_SPEED STORM_DIR
1904187N12150 1904 18 WP MM NOT_NAMED 1904-07-04 13:00:00 NR 11.6000 149.800 main 1557 1554 __________O___ -1 11.6000 149.800 7 5 285
1904187N12150 1904 18 WP MM NOT_NAMED 1904-07-04 15:00:00 NR 11.6404 149.650 main 1554 1554 __________P___ -1 11.6404 149.650 7 5 288
1904187N12150 1904 18 WP MM NOT_NAMED 1904-07-04 18:00:00 NR 11.7234 149.412 main 1561 1561 __________P___ -1 11.7234 149.412 7 5 294
1904187N12150 1904 18 WP MM NOT_NAMED 1904-07-04 21:00:00 NR 11.8638 149.143 main 1579 1578 __________P___ -1 11.8638 149.143 7 7 303
1904187N12150 1904 18 WP MM NOT_NAMED 1904-07-05 00:00:00 NR 12.0962 148.822 main 1598 1598 __________P___ -1 12.0962 148.822 7 8 308
1904187N12150 1904 18 WP MM NOT_NAMED 1904-07-05 01:00:00 NR 12.2000 148.700 main 1608 1608 __________O___ -1 12.2000 148.700 7 10 313
1904187N12150 1904 18 WP MM NOT_NAMED 1904-07-05 03:00:00 NR 12.4521 148.433 main 1639 1638 __________P___ -1 12.4521 148.433 7 12 317
1904187N12150 1904 18 WP MM NOT_NAMED 1904-07-05 06:00:00 NR 12.9304 147.994 main 1681 1692 __________P___ -1 12.9304 147.994 7 14 321
1904187N12150 1904 18 WP MM NOT_NAMED 1904-07-05 09:00:00 NR 13.5094 147.545 main 1747 1747 __________P___ -1 13.5094 147.545 7 15 326
1904187N12150 1904 18 WP MM NOT_NAMED 1904-07-05 12:00:00 NR 14.1670 147.126 main 1826 1826 __________P___ -1 14.1670 147.126 7 16 329
1904187N12150 1904 18 WP MM NOT_NAMED 1904-07-05 13:00:00 NR 14.4000 147.000 main 1848 1848 __________O___ -1 14.4000 147.000 7 16 338
1904187N12150 1904 18 WP MM NOT_NAMED 1904-07-05 15:00:00 NR 14.8934 146.826 main 1904 1904 __________P___ -1 14.8934 146.826 7 16 344
1904187N12150 1904 18 WP MM NOT_NAMED 1904-07-05 18:00:00 NR 15.6913 146.611 main 1994 1994 __________P___ -1 15.6913 146.611 7 17 346
1904187N12150 1904 18 WP MM NOT_NAMED 1904-07-05 21:00:00 NR 16.5033 146.396 main 2083 2059 __________P___ -1 16.5033 146.396 7 17 343
1904187N12150 1904 18 WP MM NOT_NAMED 1904-07-06 00:00:00 NR 17.2670 146.118 main 2059 2035 __________P___ -1 17.2670 146.118 7 16 339
1904187N12150 1904 18 WP MM NOT_NAMED 1904-07-06 01:00:00 NR 17.5000 146.000 main 2035 1983 __________O___ -1 17.5000 146.000 7 16 328
1904187N12150 1904 18 WP MM NOT_NAMED 1904-07-06 03:00:00 NR 17.9253 145.686 main 1983 1901 __________P___ -1 17.9253 145.686 7 16 320
1904187N12150 1904 18 WP MM NOT_NAMED 1904-07-06 06:00:00 NR 18.4945 145.133 main 1901 1825 __________P___ -1 18.4945 145.133 7 15 314
1904187N12150 1904 18 WP MM NOT_NAMED 1904-07-06 09:00:00 NR 18.9806 144.523 main 1825 1757 __________P___ -1 18.9806 144.523 7 15 307
1904187N12150 1904 18 WP MM NOT_NAMED 1904-07-06 12:00:00 NR 19.3839 143.901 main 1757 1738 __________P___ -1 19.3839 143.901 7 14 304
1904187N12150 1904 18 WP MM NOT_NAMED 1904-07-06 13:00:00 NR 19.5000 143.700 main 1738 1700 __________O___ -1 19.5000 143.700 3 12 299
1904187N12150 1904 18 WP MM NOT_NAMED 1904-07-06 15:00:00 NR 19.6836 143.329 main 1700 1658 __________P___ -1 19.6836 143.329 3 11 294
1904187N12150 1904 18 WP MM NOT_NAMED 1904-07-06 18:00:00 NR 19.8893 142.786 main 1658 1618 __________P___ -1 19.8893 142.786 3 11 291
1904187N12150 1904 18 WP MM NOT_NAMED 1904-07-06 21:00:00 NR 20.0724 142.262 main 1618 1578 __________P___ -1 20.0724 142.262 3 10 293
1904187N12150 1904 18 WP MM NOT_NAMED 1904-07-07 00:00:00 NR 20.3015 141.762 main 1578 1560 __________P___ -1 20.3015 141.762 3 11 298
1904187N12150 1904 18 WP MM NOT_NAMED 1904-07-07 01:00:00 NR 20.4000 141.600 main 1560 1518 __________O___ -1 20.4000 141.600 4 12 308
1904187N12150 1904 18 WP MM NOT_NAMED 1904-07-07 03:00:00 NR 20.6677 141.268 main 1518 1458 __________P___ -1 20.6677 141.268 4 13 314
1904187N12150 1904 18 WP MM NOT_NAMED 1904-07-07 06:00:00 NR 21.1389 140.787 main 1458 1379 __________P___ -1 21.1389 140.787 4 13 319
1904187N12150 1904 18 WP MM NOT_NAMED 1904-07-07 09:00:00 NR 21.6656 140.337 main 1379 1313 __________P___ -1 21.6656 140.337 4 13 323
1904187N12150 1904 18 WP MM NOT_NAMED 1904-07-07 12:00:00 NR 22.2164 139.926 main 1313 1289 __________P___ -1 22.2164 139.926 4 13 326
1904187N12150 1904 18 WP MM NOT_NAMED 1904-07-07 13:00:00 NR 22.4000 139.800 main 1289 1240 __________O___ -1 22.4000 139.800 7 13 328
1904187N12150 1904 18 WP MM NOT_NAMED 1904-07-07 15:00:00 NR 22.7619 139.564 main 1240 1175 __________P___ -1 22.7619 139.564 7 12 330
1904187N12150 1904 18 WP MM NOT_NAMED 1904-07-07 18:00:00 NR 23.2930 139.247 main 1175 1115 __________P___ -1 23.2930 139.247 7 12 332
1904187N12150 1904 18 WP MM NOT_NAMED 1904-07-07 21:00:00 NR 23.8139 138.959 main 1115 1054 __________P___ -1 23.8139 138.959 7 12 334
1904187N12150 1904 18 WP MM NOT_NAMED 1904-07-08 00:00:00 NR 24.3289 138.689 main 1054 1029 __________P___ -1 24.3289 138.689 7 11 334
1904187N12150 1904 18 WP MM NOT_NAMED 1904-07-08 01:00:00 NR 24.5000 138.600 main 1029 __________O___ -1 24.5000 138.600 7 11 334

デジタル台風データ・検索

IBTrACS Databaseについて

本データベースは、米国NOAAが公開する1842年以降の世界の熱帯低気圧のベストトラックデータアーカイブInternational Best Track Archive for Climate Stewardship (IBTrACS)を、ウェブで閲覧しやすい形式に変換したものです。

最終更新日:2021-12-06